Provider — WX6821 — position and weather

sailwx.info

Track history (hours):
 
Tides and Currents Weather Stations Pressure Air Temp Water Temp Dewpoint Dewpoint Depression Visibility Wind Speed Wind Dir Waves Ship Positions

Provider

Owner: WESTAR MARINE SERVICES, SAN FRANCISCO, CA. More information available from US FCC via Universal Licensing System and Coast Guard Vessel Documentation Center.

Last reported at 2017-Oct-17 13:31 UTC. Time now 2017-Oct-17 13:50 UTC.
Position N 37°47' W 122°22'.

Length 22 m; draft 1.9 m.

Type: Ship. MMSI: 367094360.

Date/timePositionNaut miles runAvg speedWind from/ knotsBaromVisibWave heightAir tempDewpointWater temp
2017-Oct-17 13:31N 37°47' W 122°22'1 0.1
2017-Oct-17 05:16N 37°46' W 122°23'0 0.2
2017-Oct-17 05:00N 37°46' W 122°23'0 0.0
2017-Oct-16 21:27N 37°46' W 122°23'4 8.8
2017-Oct-16 21:00N 37°49' W 122°19'2 4.9
2017-Oct-16 20:30N 37°47' W 122°21'1 1.9
2017-Oct-16 20:00N 37°46' W 122°21'0 0.3
2017-Oct-16 19:30N 37°46' W 122°21'4 7.0
2017-Oct-16 19:00N 37°49' W 122°19'2 4.2
2017-Oct-16 18:30N 37°48' W 122°21'2 3.5
2017-Oct-16 18:00N 37°46' W 122°23'4 7.5
2017-Oct-16 17:30N 37°46' W 122°18'0 0.8
2017-Oct-16 17:00N 37°47' W 122°18'2 4.0
2017-Oct-16 16:30N 37°47' W 122°21'2 4.2
2017-Oct-16 16:00N 37°47' W 122°23'2 4.6
2017-Oct-16 15:30N 37°49' W 122°25'0 0.7
2017-Oct-16 15:00N 37°49' W 122°25'3 2.6
2017-Oct-16 14:00N 37°46' W 122°23'0 0.0
2017-Oct-16 13:30N 37°46' W 122°23'0 0.0
2017-Oct-16 06:51N 37°46' W 122°23'410.2
2017-Oct-16 06:31N 37°49' W 122°20'4 8.4
2017-Oct-16 06:00N 37°45' W 122°21'3 5.7
2017-Oct-16 05:31N 37°47' W 122°21'2 4.9
2017-Oct-16 05:00N 37°49' W 122°19'0 0.0
2017-Oct-16 04:30N 37°49' W 122°19'2 4.3
2017-Oct-16 04:01N 37°48' W 122°21'2 4.5
2017-Oct-16 03:31N 37°48' W 122°24'3 5.1
2017-Oct-16 03:00N 37°48' W 122°21'2 3.2
2017-Oct-16 02:31N 37°47' W 122°22'1 1.4
2017-Oct-16 02:01N 37°47' W 122°23'2 4.3
2017-Oct-16 01:30N 37°48' W 122°21'4 8.2
2017-Oct-16 01:00N 37°44' W 122°20'0 0.0
2017-Oct-16 00:30N 37°44' W 122°20'0 0.3
2017-Oct-16 00:00N 37°44' W 122°20'4 8.7
2017-Oct-15 23:31N 37°48' W 122°21'2 3.3
2017-Oct-15 23:00N 37°47' W 122°22'1 1.4
2017-Oct-15 22:30N 37°46' W 122°23'0 0.1
2017-Oct-15 22:00N 37°46' W 122°23'0 0.0
2017-Oct-15 21:30N 37°46' W 122°23'0 0.0
2017-Oct-15 21:00N 37°46' W 122°23'0 0.0
2017-Oct-15 20:30N 37°46' W 122°23'0 0.0
2017-Oct-15 20:00N 37°46' W 122°23'0 0.0
2017-Oct-15 19:26N 37°46' W 122°23'1 1.6
2017-Oct-15 19:00N 37°47' W 122°23'1 2.1
2017-Oct-15 18:30N 37°47' W 122°21'2 3.7
2017-Oct-15 18:01N 37°49' W 122°20'3 7.0
2017-Oct-15 17:31N 37°46' W 122°23'0 0.1
2017-Oct-15 17:00N 37°46' W 122°23'0 0.1
2017-Oct-15 16:31N 37°46' W 122°23'0 0.0
2017-Oct-15 16:00N 37°46' W 122°23'0 0.1
2017-Oct-15 15:31N 37°46' W 122°23'0 0.1
2017-Oct-15 15:01N 37°46' W 122°23'0 0.4
2017-Oct-15 14:00N 37°46' W 122°23'0 0.8
2017-Oct-15 13:30N 37°46' W 122°23'0 0.0
2017-Oct-15 12:15N 37°46' W 122°23'311.4
2017-Oct-15 12:00N 37°49' W 122°25'1 2.3
2017-Oct-15 11:30N 37°48' W 122°24'4 7.7
2017-Oct-15 11:00N 37°49' W 122°28'3 6.9
2017-Oct-15 10:31N 37°49' W 122°24'4 7.6
2017-Oct-15 10:01N 37°48' W 122°20'3 0.4
2017-Oct-15 01:36N 37°46' W 122°23'1 7.7
2017-Oct-15 01:31N 37°46' W 122°22'1 0.1
2017-Oct-14 21:04N 37°46' W 122°23'0 0.0
2017-Oct-14 21:00N 37°46' W 122°23'3 5.9
2017-Oct-14 20:31N 37°44' W 122°20'4 8.4
2017-Oct-14 20:00N 37°49' W 122°20'1 2.9
2017-Oct-14 19:30N 37°48' W 122°22'2 3.6
2017-Oct-14 19:00N 37°46' W 122°23'0 0.0
2017-Oct-14 18:30N 37°46' W 122°23'0 0.0
2017-Oct-14 18:00N 37°46' W 122°23'0 0.0
2017-Oct-14 17:30N 37°46' W 122°23'0 0.0
2017-Oct-14 17:00N 37°46' W 122°23'0 0.0
2017-Oct-14 16:30N 37°46' W 122°23'0 0.0
2017-Oct-14 16:00N 37°46' W 122°23'0 0.0
2017-Oct-14 15:30N 37°46' W 122°23'0 0.0
2017-Oct-14 15:00N 37°46' W 122°23'0 0.0
2017-Oct-14 14:30N 37°46' W 122°23'1 1.9
2017-Oct-14 14:00N 37°46' W 122°22'1 1.9
2017-Oct-14 13:30N 37°46' W 122°23'0 0.0
2017-Oct-14 07:11N 37°46' W 122°23'2 9.7
2017-Oct-14 07:00N 37°48' W 122°22'1 1.9
2017-Oct-14 06:30N 37°47' W 122°21'2 3.2
2017-Oct-14 06:00N 37°49' W 122°20'1 2.4
2017-Oct-14 05:31N 37°49' W 122°19'4 8.3
2017-Oct-14 05:00N 37°46' W 122°23'0 0.5
2017-Oct-14 04:29N 37°46' W 122°23'0 0.0
2017-Oct-14 04:00N 37°46' W 122°23'0 0.0
2017-Oct-14 03:30N 37°46' W 122°23'0 0.0
2017-Oct-14 03:00N 37°46' W 122°23'0 0.1
2017-Oct-14 02:30N 37°46' W 122°23'0 0.1
2017-Oct-14 02:00N 37°46' W 122°23'2 4.5
2017-Oct-14 01:30N 37°46' W 122°20'2 4.4
2017-Oct-14 01:01N 37°46' W 122°23'0 0.0
2017-Oct-14 00:30N 37°46' W 122°23'0 0.0
2017-Oct-14 00:00N 37°46' W 122°23'0 0.0
2017-Oct-13 23:30N 37°46' W 122°23'2 3.8
2017-Oct-13 23:00N 37°46' W 122°21'2 3.7
2017-Oct-13 22:31N 37°46' W 122°23'0 0.0
2017-Oct-13 22:01N 37°46' W 122°23'0 0.0
2017-Oct-13 21:31N 37°46' W 122°23'0 0.0
2017-Oct-13 20:38N 37°46' W 122°23'1 5.7
2017-Oct-13 20:30N 37°46' W 122°22'2 3.5
2017-Oct-13 20:00N 37°45' W 122°21'2 4.9
2017-Oct-13 19:30N 37°46' W 122°23'4 8.5
2017-Oct-13 19:01N 37°49' W 122°19'5 9.9
2017-Oct-13 18:30N 37°44' W 122°21'4 8.0
2017-Oct-13 18:00N 37°48' W 122°21'1 1.7
2017-Oct-13 17:30N 37°49' W 122°20'510.1
2017-Oct-13 17:00N 37°44' W 122°21'0 0.3
2017-Oct-13 16:30N 37°44' W 122°21'510.1
2017-Oct-13 16:00N 37°49' W 122°20'3 6.6
2017-Oct-13 15:30N 37°46' W 122°23'2 3.6
2017-Oct-13 15:00N 37°46' W 122°21'2 3.4
2017-Oct-13 14:30N 37°46' W 122°23'2 4.7
2017-Oct-13 14:01N 37°45' W 122°20'2 4.8
2017-Oct-13 13:30N 37°46' W 122°23'0 0.0
2017-Oct-13 12:11N 37°46' W 122°23'211.9
2017-Oct-13 12:01N 37°47' W 122°21'4 7.3
2017-Oct-13 11:31N 37°50' W 122°24'3 5.7
2017-Oct-13 11:00N 37°49' W 122°28'3 6.3
2017-Oct-13 10:30N 37°48' W 122°24'2 3.4
2017-Oct-13 10:00N 37°46' W 122°23'0 0.0
2017-Oct-13 09:30N 37°46' W 122°23'0 0.0
2017-Oct-13 09:00N 37°46' W 122°23'2 3.3
2017-Oct-13 08:31N 37°48' W 122°22'1 2.2
2017-Oct-13 08:01N 37°47' W 122°21'2 3.5
2017-Oct-13 07:30N 37°46' W 122°23'0 0.0
2017-Oct-13 07:00N 37°46' W 122°23'0 0.0
2017-Oct-13 06:30N 37°46' W 122°23'2 3.3
2017-Oct-13 06:01N 37°48' W 122°24'2 4.1
2017-Oct-13 05:30N 37°50' W 122°25'0 0.0
2017-Oct-13 05:00N 37°50' W 122°25'0 0.0
2017-Oct-13 04:30N 37°50' W 122°25'1 2.8
2017-Oct-13 03:58N 37°48' W 122°24'3 7.3
2017-Oct-13 03:30N 37°46' W 122°21'1 2.3
2017-Oct-13 03:00N 37°47' W 122°22'1 2.4
2017-Oct-13 02:30N 37°46' W 122°21'0 0.4
2017-Oct-13 02:00N 37°46' W 122°21'2 3.4
2017-Oct-13 01:29N 37°46' W 122°23'0 0.0
2017-Oct-13 01:00N 37°46' W 122°23'0 0.0
2017-Oct-13 00:30N 37°46' W 122°23'0 0.0
2017-Oct-13 00:00N 37°46' W 122°23'0 0.0
2017-Oct-12 23:30N 37°46' W 122°23'2 3.7
2017-Oct-12 23:01N 37°46' W 122°21'1 2.6
2017-Oct-12 22:30N 37°46' W 122°22'1 2.6
2017-Oct-12 22:01N 37°46' W 122°21'4 7.0
2017-Oct-12 21:31N 37°49' W 122°19'1 2.7
2017-Oct-12 21:00N 37°49' W 122°20'3 6.0
2017-Oct-12 20:30N 37°46' W 122°23'0 0.0
2017-Oct-12 19:30N 37°46' W 122°23'3 5.1
2017-Oct-12 19:00N 37°45' W 122°20'4 8.0
2017-Oct-12 18:30N 37°48' W 122°24'0 0.0
2017-Oct-12 18:00N 37°48' W 122°24'0 0.3
2017-Oct-12 17:30N 37°48' W 122°24'2 2.4
2017-Oct-12 16:46N 37°46' W 122°23'2 8.3
2017-Oct-12 16:30N 37°46' W 122°20'0 1.0
2017-Oct-12 16:00N 37°45' W 122°21'1 2.7
2017-Oct-12 15:30N 37°47' W 122°20'2 3.6
2017-Oct-12 15:00N 37°47' W 122°18'0 0.6
2017-Oct-12 14:31N 37°46' W 122°18'3 6.2
2017-Oct-12 14:01N 37°47' W 122°22'1 0.4
2017-Oct-12 11:43N 37°46' W 122°23'0 0.3
2017-Oct-12 11:31N 37°47' W 122°23'0 0.1
2017-Oct-12 11:00N 37°46' W 122°23'0 0.0
2017-Oct-12 02:18N 37°46' W 122°23'0 0.0
2017-Oct-12 02:01N 37°46' W 122°23'3 6.4
2017-Oct-12 01:31N 37°48' W 122°19'510.0
2017-Oct-12 01:01N 37°49' W 122°26'1 2.0
2017-Oct-12 00:31N 37°49' W 122°24'2 0.5
2017-Oct-11 19:31N 37°46' W 122°23'0 0.0
2017-Oct-11 19:30N 37°46' W 122°23'510.5
2017-Oct-11 19:01N 37°52' W 122°25'2 4.9
2017-Oct-11 18:30N 37°54' W 122°25'1 2.5
2017-Oct-11 18:00N 37°55' W 122°25'1 1.7
2017-Oct-11 17:30N 37°55' W 122°25'611.9
2017-Oct-11 17:01N 37°49' W 122°23'2 0.1
2017-Oct-10 22:51N 37°46' W 122°23'1 1.7
2017-Oct-10 22:31N 37°47' W 122°23'2 4.5
2017-Oct-10 22:00N 37°49' W 122°25'3 5.4
2017-Oct-10 21:30N 37°50' W 122°28'4 8.2
2017-Oct-10 21:00N 37°53' W 122°25'1 1.6
2017-Oct-10 20:30N 37°54' W 122°25'510.9
2017-Oct-10 20:01N 37°48' W 122°24'2 3.3
2017-Oct-10 19:30N 37°49' W 122°26'3 6.8
2017-Oct-10 19:00N 37°46' W 122°23'0 0.0
2017-Oct-10 18:25N 37°46' W 122°23'0 0.0
2017-Oct-10 18:00N 37°46' W 122°23'0 0.0
2017-Oct-10 17:30N 37°46' W 122°23'0 0.0
2017-Oct-10 17:00N 37°46' W 122°23'0 0.0
2017-Oct-10 01:30N 37°46' W 122°23'0 0.8
2017-Oct-10 01:00N 37°47' W 122°23'4 7.4
2017-Oct-10 00:30N 37°44' W 122°20'4 9.0
2017-Oct-10 00:01N 37°49' W 122°20'2 3.2
2017-Oct-09 23:30N 37°48' W 122°21'3 5.5
2017-Oct-09 23:00N 37°45' W 122°22'2 4.7
2017-Oct-09 22:30N 37°47' W 122°23'0 0.3
2017-Oct-09 21:07N 37°46' W 122°23'0 0.0
2017-Oct-09 21:00N 37°46' W 122°23'0 0.8
2017-Oct-09 20:30N 37°47' W 122°23'0 0.0
2017-Oct-09 20:00N 37°47' W 122°23'0 0.0
2017-Oct-09 19:30N 37°47' W 122°23'0 0.0
2017-Oct-08 04:30N 37°46' W 122°23'0 0.0
2017-Oct-08 04:01N 37°46' W 122°23'2 3.3
2017-Oct-08 03:30N 37°46' W 122°21'3 5.1
2017-Oct-08 03:00N 37°49' W 122°20'3 5.1
2017-Oct-08 02:30N 37°46' W 122°21'2 3.3
2017-Oct-08 02:00N 37°46' W 122°23'2 3.9
2017-Oct-08 01:30N 37°45' W 122°21'2 1.2
2017-Oct-07 23:54N 37°46' W 122°23'410.5
2017-Oct-07 23:30N 37°49' W 122°19'3 5.2
2017-Oct-07 23:00N 37°48' W 122°22'2 3.6
2017-Oct-07 22:30N 37°49' W 122°24'0 0.9
2017-Oct-07 22:00N 37°49' W 122°24'0 0.7
2017-Oct-07 21:30N 37°49' W 122°24'0 0.4
2017-Oct-07 21:00N 37°49' W 122°24'0 0.1
2017-Oct-07 20:30N 37°49' W 122°24'0 0.9
2017-Oct-07 20:00N 37°49' W 122°24'1 2.0
2017-Oct-07 19:31N 37°48' W 122°23'3 7.0
2017-Oct-07 19:01N 37°49' W 122°19'1 1.0
2017-Oct-07 18:30N 37°49' W 122°20'  
Track history (hours):
 
Tides and Currents Weather Stations Pressure Air Temp Water Temp Dewpoint Dewpoint Depression Visibility Wind Speed Wind Dir Waves Ship Positions

Provider

Owner: WESTAR MARINE SERVICES, SAN FRANCISCO, CA. More information available from US FCC via Universal Licensing System and Coast Guard Vessel Documentation Center.

Last reported at 2017-Oct-17 13:31 UTC. Time now 2017-Oct-17 13:50 UTC.
Position N 37°47' W 122°22'.

Length 22 m; draft 1.9 m.

Type: Ship. MMSI: 367094360.

Date/timePositionNaut miles runAvg speedWind from/ knotsBaromVisibWave heightAir tempDewpointWater temp
2017-Oct-17 13:31N 37°47' W 122°22'1 0.1
2017-Oct-17 05:16N 37°46' W 122°23'0 0.2
2017-Oct-17 05:00N 37°46' W 122°23'0 0.0
2017-Oct-16 21:27N 37°46' W 122°23'4 8.8
2017-Oct-16 21:00N 37°49' W 122°19'2 4.9
2017-Oct-16 20:30N 37°47' W 122°21'1 1.9
2017-Oct-16 20:00N 37°46' W 122°21'0 0.3
2017-Oct-16 19:30N 37°46' W 122°21'4 7.0
2017-Oct-16 19:00N 37°49' W 122°19'2 4.2
2017-Oct-16 18:30N 37°48' W 122°21'2 3.5
2017-Oct-16 18:00N 37°46' W 122°23'4 7.5
2017-Oct-16 17:30N 37°46' W 122°18'0 0.8
2017-Oct-16 17:00N 37°47' W 122°18'2 4.0
2017-Oct-16 16:30N 37°47' W 122°21'2 4.2
2017-Oct-16 16:00N 37°47' W 122°23'2 4.6
2017-Oct-16 15:30N 37°49' W 122°25'0 0.7
2017-Oct-16 15:00N 37°49' W 122°25'3 2.6
2017-Oct-16 14:00N 37°46' W 122°23'0 0.0
2017-Oct-16 13:30N 37°46' W 122°23'0 0.0
2017-Oct-16 06:51N 37°46' W 122°23'410.2
2017-Oct-16 06:31N 37°49' W 122°20'4 8.4
2017-Oct-16 06:00N 37°45' W 122°21'3 5.7
2017-Oct-16 05:31N 37°47' W 122°21'2 4.9
2017-Oct-16 05:00N 37°49' W 122°19'0 0.0
2017-Oct-16 04:30N 37°49' W 122°19'2 4.3
2017-Oct-16 04:01N 37°48' W 122°21'2 4.5
2017-Oct-16 03:31N 37°48' W 122°24'3 5.1
2017-Oct-16 03:00N 37°48' W 122°21'2 3.2
2017-Oct-16 02:31N 37°47' W 122°22'1 1.4
2017-Oct-16 02:01N 37°47' W 122°23'2 4.3
2017-Oct-16 01:30N 37°48' W 122°21'4 8.2
2017-Oct-16 01:00N 37°44' W 122°20'0 0.0
2017-Oct-16 00:30N 37°44' W 122°20'0 0.3
2017-Oct-16 00:00N 37°44' W 122°20'4 8.7
2017-Oct-15 23:31N 37°48' W 122°21'2 3.3
2017-Oct-15 23:00N 37°47' W 122°22'1 1.4
2017-Oct-15 22:30N 37°46' W 122°23'0 0.1
2017-Oct-15 22:00N 37°46' W 122°23'0 0.0
2017-Oct-15 21:30N 37°46' W 122°23'0 0.0
2017-Oct-15 21:00N 37°46' W 122°23'0 0.0
2017-Oct-15 20:30N 37°46' W 122°23'0 0.0
2017-Oct-15 20:00N 37°46' W 122°23'0 0.0
2017-Oct-15 19:26N 37°46' W 122°23'1 1.6
2017-Oct-15 19:00N 37°47' W 122°23'1 2.1
2017-Oct-15 18:30N 37°47' W 122°21'2 3.7
2017-Oct-15 18:01N 37°49' W 122°20'3 7.0
2017-Oct-15 17:31N 37°46' W 122°23'0 0.1
2017-Oct-15 17:00N 37°46' W 122°23'0 0.1
2017-Oct-15 16:31N 37°46' W 122°23'0 0.0
2017-Oct-15 16:00N 37°46' W 122°23'0 0.1
2017-Oct-15 15:31N 37°46' W 122°23'0 0.1
2017-Oct-15 15:01N 37°46' W 122°23'0 0.4
2017-Oct-15 14:00N 37°46' W 122°23'0 0.8
2017-Oct-15 13:30N 37°46' W 122°23'0 0.0
2017-Oct-15 12:15N 37°46' W 122°23'311.4
2017-Oct-15 12:00N 37°49' W 122°25'1 2.3
2017-Oct-15 11:30N 37°48' W 122°24'4 7.7
2017-Oct-15 11:00N 37°49' W 122°28'3 6.9
2017-Oct-15 10:31N 37°49' W 122°24'4 7.6
2017-Oct-15 10:01N 37°48' W 122°20'3 0.4
2017-Oct-15 01:36N 37°46' W 122°23'1 7.7
2017-Oct-15 01:31N 37°46' W 122°22'1 0.1
2017-Oct-14 21:04N 37°46' W 122°23'0 0.0
2017-Oct-14 21:00N 37°46' W 122°23'3 5.9
2017-Oct-14 20:31N 37°44' W 122°20'4 8.4
2017-Oct-14 20:00N 37°49' W 122°20'1 2.9
2017-Oct-14 19:30N 37°48' W 122°22'2 3.6
2017-Oct-14 19:00N 37°46' W 122°23'0 0.0
2017-Oct-14 18:30N 37°46' W 122°23'0 0.0
2017-Oct-14 18:00N 37°46' W 122°23'0 0.0
2017-Oct-14 17:30N 37°46' W 122°23'0 0.0
2017-Oct-14 17:00N 37°46' W 122°23'0 0.0
2017-Oct-14 16:30N 37°46' W 122°23'0 0.0
2017-Oct-14 16:00N 37°46' W 122°23'0 0.0
2017-Oct-14 15:30N 37°46' W 122°23'0 0.0
2017-Oct-14 15:00N 37°46' W 122°23'0 0.0
2017-Oct-14 14:30N 37°46' W 122°23'1 1.9
2017-Oct-14 14:00N 37°46' W 122°22'1 1.9
2017-Oct-14 13:30N 37°46' W 122°23'0 0.0
2017-Oct-14 07:11N 37°46' W 122°23'2 9.7
2017-Oct-14 07:00N 37°48' W 122°22'1 1.9
2017-Oct-14 06:30N 37°47' W 122°21'2 3.2
2017-Oct-14 06:00N 37°49' W 122°20'1 2.4
2017-Oct-14 05:31N 37°49' W 122°19'4 8.3
2017-Oct-14 05:00N 37°46' W 122°23'0 0.5
2017-Oct-14 04:29N 37°46' W 122°23'0 0.0
2017-Oct-14 04:00N 37°46' W 122°23'0 0.0
2017-Oct-14 03:30N 37°46' W 122°23'0 0.0
2017-Oct-14 03:00N 37°46' W 122°23'0 0.1
2017-Oct-14 02:30N 37°46' W 122°23'0 0.1
2017-Oct-14 02:00N 37°46' W 122°23'2 4.5
2017-Oct-14 01:30N 37°46' W 122°20'2 4.4
2017-Oct-14 01:01N 37°46' W 122°23'0 0.0
2017-Oct-14 00:30N 37°46' W 122°23'0 0.0
2017-Oct-14 00:00N 37°46' W 122°23'0 0.0
2017-Oct-13 23:30N 37°46' W 122°23'2 3.8
2017-Oct-13 23:00N 37°46' W 122°21'2 3.7
2017-Oct-13 22:31N 37°46' W 122°23'0 0.0
2017-Oct-13 22:01N 37°46' W 122°23'0 0.0
2017-Oct-13 21:31N 37°46' W 122°23'0 0.0
2017-Oct-13 20:38N 37°46' W 122°23'1 5.7
2017-Oct-13 20:30N 37°46' W 122°22'2 3.5
2017-Oct-13 20:00N 37°45' W 122°21'2 4.9
2017-Oct-13 19:30N 37°46' W 122°23'4 8.5
2017-Oct-13 19:01N 37°49' W 122°19'5 9.9
2017-Oct-13 18:30N 37°44' W 122°21'4 8.0
2017-Oct-13 18:00N 37°48' W 122°21'1 1.7
2017-Oct-13 17:30N 37°49' W 122°20'510.1
2017-Oct-13 17:00N 37°44' W 122°21'0 0.3
2017-Oct-13 16:30N 37°44' W 122°21'510.1
2017-Oct-13 16:00N 37°49' W 122°20'3 6.6
2017-Oct-13 15:30N 37°46' W 122°23'2 3.6
2017-Oct-13 15:00N 37°46' W 122°21'2 3.4
2017-Oct-13 14:30N 37°46' W 122°23'2 4.7
2017-Oct-13 14:01N 37°45' W 122°20'2 4.8
2017-Oct-13 13:30N 37°46' W 122°23'0 0.0
2017-Oct-13 12:11N 37°46' W 122°23'211.9
2017-Oct-13 12:01N 37°47' W 122°21'4 7.3
2017-Oct-13 11:31N 37°50' W 122°24'3 5.7
2017-Oct-13 11:00N 37°49' W 122°28'3 6.3
2017-Oct-13 10:30N 37°48' W 122°24'2 3.4
2017-Oct-13 10:00N 37°46' W 122°23'0 0.0
2017-Oct-13 09:30N 37°46' W 122°23'0 0.0
2017-Oct-13 09:00N 37°46' W 122°23'2 3.3
2017-Oct-13 08:31N 37°48' W 122°22'1 2.2
2017-Oct-13 08:01N 37°47' W 122°21'2 3.5
2017-Oct-13 07:30N 37°46' W 122°23'0 0.0
2017-Oct-13 07:00N 37°46' W 122°23'0 0.0
2017-Oct-13 06:30N 37°46' W 122°23'2 3.3
2017-Oct-13 06:01N 37°48' W 122°24'2 4.1
2017-Oct-13 05:30N 37°50' W 122°25'0 0.0
2017-Oct-13 05:00N 37°50' W 122°25'0 0.0
2017-Oct-13 04:30N 37°50' W 122°25'1 2.8
2017-Oct-13 03:58N 37°48' W 122°24'3 7.3
2017-Oct-13 03:30N 37°46' W 122°21'1 2.3
2017-Oct-13 03:00N 37°47' W 122°22'1 2.4
2017-Oct-13 02:30N 37°46' W 122°21'0 0.4
2017-Oct-13 02:00N 37°46' W 122°21'2 3.4
2017-Oct-13 01:29N 37°46' W 122°23'0 0.0
2017-Oct-13 01:00N 37°46' W 122°23'0 0.0
2017-Oct-13 00:30N 37°46' W 122°23'0 0.0
2017-Oct-13 00:00N 37°46' W 122°23'0 0.0
2017-Oct-12 23:30N 37°46' W 122°23'2 3.7
2017-Oct-12 23:01N 37°46' W 122°21'1 2.6
2017-Oct-12 22:30N 37°46' W 122°22'1 2.6
2017-Oct-12 22:01N 37°46' W 122°21'4 7.0
2017-Oct-12 21:31N 37°49' W 122°19'1 2.7
2017-Oct-12 21:00N 37°49' W 122°20'3 6.0
2017-Oct-12 20:30N 37°46' W 122°23'0 0.0
2017-Oct-12 19:30N 37°46' W 122°23'3 5.1
2017-Oct-12 19:00N 37°45' W 122°20'4 8.0
2017-Oct-12 18:30N 37°48' W 122°24'0 0.0
2017-Oct-12 18:00N 37°48' W 122°24'0 0.3
2017-Oct-12 17:30N 37°48' W 122°24'2 2.4
2017-Oct-12 16:46N 37°46' W 122°23'2 8.3
2017-Oct-12 16:30N 37°46' W 122°20'0 1.0
2017-Oct-12 16:00N 37°45' W 122°21'1 2.7
2017-Oct-12 15:30N 37°47' W 122°20'2 3.6
2017-Oct-12 15:00N 37°47' W 122°18'0 0.6
2017-Oct-12 14:31N 37°46' W 122°18'3 6.2
2017-Oct-12 14:01N 37°47' W 122°22'1 0.4
2017-Oct-12 11:43N 37°46' W 122°23'0 0.3
2017-Oct-12 11:31N 37°47' W 122°23'0 0.1
2017-Oct-12 11:00N 37°46' W 122°23'0 0.0
2017-Oct-12 02:18N 37°46' W 122°23'0 0.0
2017-Oct-12 02:01N 37°46' W 122°23'3 6.4
2017-Oct-12 01:31N 37°48' W 122°19'510.0
2017-Oct-12 01:01N 37°49' W 122°26'1 2.0
2017-Oct-12 00:31N 37°49' W 122°24'2 0.5
2017-Oct-11 19:31N 37°46' W 122°23'0 0.0
2017-Oct-11 19:30N 37°46' W 122°23'510.5
2017-Oct-11 19:01N 37°52' W 122°25'2 4.9
2017-Oct-11 18:30N 37°54' W 122°25'1 2.5
2017-Oct-11 18:00N 37°55' W 122°25'1 1.7
2017-Oct-11 17:30N 37°55' W 122°25'611.9
2017-Oct-11 17:01N 37°49' W 122°23'2 0.1
2017-Oct-10 22:51N 37°46' W 122°23'1 1.7
2017-Oct-10 22:31N 37°47' W 122°23'2 4.5
2017-Oct-10 22:00N 37°49' W 122°25'3 5.4
2017-Oct-10 21:30N 37°50' W 122°28'4 8.2
2017-Oct-10 21:00N 37°53' W 122°25'1 1.6
2017-Oct-10 20:30N 37°54' W 122°25'510.9
2017-Oct-10 20:01N 37°48' W 122°24'2 3.3
2017-Oct-10 19:30N 37°49' W 122°26'3 6.8
2017-Oct-10 19:00N 37°46' W 122°23'0 0.0
2017-Oct-10 18:25N 37°46' W 122°23'0 0.0
2017-Oct-10 18:00N 37°46' W 122°23'0 0.0
2017-Oct-10 17:30N 37°46' W 122°23'0 0.0
2017-Oct-10 17:00N 37°46' W 122°23'0 0.0
2017-Oct-10 01:30N 37°46' W 122°23'0 0.8
2017-Oct-10 01:00N 37°47' W 122°23'4 7.4
2017-Oct-10 00:30N 37°44' W 122°20'4 9.0
2017-Oct-10 00:01N 37°49' W 122°20'2 3.2
2017-Oct-09 23:30N 37°48' W 122°21'3 5.5
2017-Oct-09 23:00N 37°45' W 122°22'2 4.7
2017-Oct-09 22:30N 37°47' W 122°23'0 0.3
2017-Oct-09 21:07N 37°46' W 122°23'0 0.0
2017-Oct-09 21:00N 37°46' W 122°23'0 0.8
2017-Oct-09 20:30N 37°47' W 122°23'0 0.0
2017-Oct-09 20:00N 37°47' W 122°23'0 0.0
2017-Oct-09 19:30N 37°47' W 122°23'0 0.0
2017-Oct-08 04:30N 37°46' W 122°23'0 0.0
2017-Oct-08 04:01N 37°46' W 122°23'2 3.3
2017-Oct-08 03:30N 37°46' W 122°21'3 5.1
2017-Oct-08 03:00N 37°49' W 122°20'3 5.1
2017-Oct-08 02:30N 37°46' W 122°21'2 3.3
2017-Oct-08 02:00N 37°46' W 122°23'2 3.9
2017-Oct-08 01:30N 37°45' W 122°21'2 1.2
2017-Oct-07 23:54N 37°46' W 122°23'410.5
2017-Oct-07 23:30N 37°49' W 122°19'3 5.2
2017-Oct-07 23:00N 37°48' W 122°22'2 3.6
2017-Oct-07 22:30N 37°49' W 122°24'0 0.9
2017-Oct-07 22:00N 37°49' W 122°24'0 0.7
2017-Oct-07 21:30N 37°49' W 122°24'0 0.4
2017-Oct-07 21:00N 37°49' W 122°24'0 0.1
2017-Oct-07 20:30N 37°49' W 122°24'0 0.9
2017-Oct-07 20:00N 37°49' W 122°24'1 2.0
2017-Oct-07 19:31N 37°48' W 122°23'3 7.0
2017-Oct-07 19:01N 37°49' W 122°19'1 1.0
2017-Oct-07 18:30N 37°49' W 122°20'  

Dump ship's entire track history